Time;durP1;ratioP1;P1;durP2;ratioP2;P2;SDS_P1;SDS_P2;PMS_P1;PMS_P2;Temp;Humidity;BMP_temperature;BMP_pressure;BME280_temperature;BME280_humidity;BME280_pressure;Samples;Min_cycle;Max_cycle;Signal;HPM_P1;HPM_P2
2023/07/05 00:01:13;;;;;;;11.52;7.75;;;;;;;15.75;71.82;100348.59;5027090;28;20116;-85
2023/07/05 00:03:40;;;;;;;12.60;8.13;;;;;;;15.82;71.63;100359.31;5027759;28;20041;-84
2023/07/05 00:06:05;;;;;;;11.68;7.60;;;;;;;15.79;72.17;100360.63;5031801;28;20476;-84
2023/07/05 00:08:31;;;;;;;11.38;7.50;;;;;;;15.73;72.70;100348.03;5034211;28;20045;-83
2023/07/05 00:11:07;;;;;;;12.23;7.97;;;;;;;15.61;73.55;100348.91;5036965;28;20157;-84
2023/07/05 00:13:32;;;;;;;11.05;7.95;;;;;;;15.43;75.01;100365.38;5036254;28;20068;-83
2023/07/05 00:15:59;;;;;;;11.52;7.90;;;;;;;15.36;74.48;100356.53;5042763;28;20048;-84
2023/07/05 00:18:25;;;;;;;11.98;7.78;;;;;;;15.49;74.85;100372.56;5029510;28;20041;-84
2023/07/05 00:20:50;;;;;;;10.38;7.75;;;;;;;15.50;74.79;100379.63;5032766;28;20060;-85
2023/07/05 00:23:18;;;;;;;11.48;7.53;;;;;;;15.54;75.92;100386.19;5039009;28;20043;-85
2023/07/05 00:25:43;;;;;;;10.63;7.60;;;;;;;15.53;75.80;100389.97;5040575;28;20052;-89
2023/07/05 00:28:09;;;;;;;13.73;7.70;;;;;;;15.54;76.31;100391.63;5030672;28;20416;-88
2023/07/05 00:30:34;;;;;;;12.15;7.43;;;;;;;15.52;77.14;100388.38;5048110;28;20463;-88
2023/07/05 00:33:00;;;;;;;10.63;7.70;;;;;;;15.43;77.74;100392.50;5041629;28;20598;-87
2023/07/05 00:35:25;;;;;;;11.20;7.68;;;;;;;15.31;79.41;100377.09;5046310;28;20029;-87
2023/07/05 00:37:50;;;;;;;10.35;8.00;;;;;;;15.15;80.72;100367.00;5037076;28;20480;-87
2023/07/05 00:40:16;;;;;;;11.18;7.72;;;;;;;15.06;80.80;100357.59;5034185;28;20033;-87
2023/07/05 00:42:42;;;;;;;11.40;7.63;;;;;;;14.98;81.76;100354.19;5024364;28;20030;-87
2023/07/05 00:45:10;;;;;;;13.10;8.38;;;;;;;14.88;82.89;100340.41;5025492;28;20053;-88
2023/07/05 00:47:37;;;;;;;9.23;7.50;;;;;;;14.81;83.46;100329.69;5036753;28;20021;-87
2023/07/05 00:50:10;;;;;;;9.68;7.93;;;;;;;14.76;83.77;100326.88;5018344;28;20047;-87
2023/07/05 00:52:35;;;;;;;10.25;7.90;;;;;;;14.67;84.83;100315.53;4999575;28;20056;-87
2023/07/05 00:55:01;;;;;;;12.65;8.10;;;;;;;14.64;85.84;100307.91;4989832;28;20467;-87
2023/07/05 00:57:31;;;;;;;10.75;8.45;;;;;;;14.51;86.78;100297.31;4992309;28;20376;-88
2023/07/05 01:00:03;;;;;;;10.70;7.97;;;;;;;14.47;87.57;100285.31;5009693;28;20059;-87
2023/07/05 01:02:29;;;;;;;12.02;8.43;;;;;;;14.43;88.34;100284.16;5008818;28;20029;-86
2023/07/05 01:04:54;;;;;;;11.35;8.20;;;;;;;14.51;88.72;100271.06;5034351;28;20112;-86
2023/07/05 01:07:20;;;;;;;11.20;8.68;;;;;;;14.39;89.22;100262.09;5027057;28;20056;-85
2023/07/05 01:09:48;;;;;;;12.98;9.02;;;;;;;14.33;90.08;100257.66;5025165;28;20029;-85
2023/07/05 01:12:39;;;;;;;11.23;8.20;;;;;;;14.34;90.50;100254.69;5036414;28;20033;-85
2023/07/05 01:15:10;;;;;;;10.90;7.30;;;;;;;14.46;90.96;100241.16;5011417;28;20162;-84
2023/07/05 01:17:59;;;;;;;12.82;7.47;;;;;;;14.48;90.88;100240.91;5017959;22;20473;-84
2023/07/05 01:20:27;;;;;;;10.98;7.70;;;;;;;14.37;91.52;100239.88;5088844;28;20031;-84
2023/07/05 01:22:55;;;;;;;11.93;7.60;;;;;;;14.42;92.06;100228.34;5101270;28;20081;-84
2023/07/05 01:25:55;;;;;;;9.52;7.90;;;;;;;14.37;92.17;100212.81;5105378;28;20039;-85
2023/07/05 01:28:42;;;;;;;9.07;7.32;;;;;;;14.37;92.57;100197.38;5087314;28;20078;-82
2023/07/05 01:31:26;;;;;;;9.50;7.55;;;;;;;14.35;92.70;100183.25;5108731;28;20118;-83
2023/07/05 01:34:08;;;;;;;9.85;7.90;;;;;;;14.33;92.89;100173.72;5108029;28;20141;-82
2023/07/05 01:36:33;;;;;;;10.35;7.35;;;;;;;14.30;93.17;100166.06;5063839;28;20514;-83
2023/07/05 01:38:58;;;;;;;9.77;7.47;;;;;;;14.27;93.41;100156.56;5090589;28;20024;-83
2023/07/05 01:41:24;;;;;;;10.82;7.97;;;;;;;14.28;93.36;100152.78;5103855;28;20543;-83
2023/07/05 01:43:50;;;;;;;11.48;8.02;;;;;;;14.24;93.59;100147.00;5107497;28;20024;-83
2023/07/05 01:46:33;;;;;;;9.63;7.45;;;;;;;14.36;93.79;100148.88;5089488;28;20483;-83
2023/07/05 01:48:58;;;;;;;10.15;7.50;;;;;;;14.36;93.73;100146.19;5105863;28;20055;-84
2023/07/05 01:51:29;;;;;;;10.97;8.00;;;;;;;14.40;93.56;100142.75;5099199;28;20627;-84
2023/07/05 01:53:57;;;;;;;10.77;7.25;;;;;;;14.50;93.21;100144.84;5089127;28;20308;-84
2023/07/05 01:56:25;;;;;;;12.27;8.27;;;;;;;14.58;93.21;100138.22;5105752;28;20027;-84
2023/07/05 01:58:51;;;;;;;8.68;6.93;;;;;;;14.66;92.78;100129.69;5076119;28;20025;-83
2023/07/05 02:01:17;;;;;;;8.43;7.03;;;;;;;14.72;92.71;100124.41;5069226;28;20081;-85
2023/07/05 02:03:42;;;;;;;8.52;6.53;;;;;;;14.82;92.25;100124.59;5093518;28;20044;-82
2023/07/05 02:06:11;;;;;;;8.00;7.10;;;;;;;14.87;92.24;100119.25;5082704;28;20357;-83
2023/07/05 02:08:38;;;;;;;9.80;6.72;;;;;;;14.85;92.26;100115.97;5087917;28;20483;-83
2023/07/05 02:11:04;;;;;;;7.95;6.15;;;;;;;14.91;92.53;100116.91;5103480;28;20042;-83
2023/07/05 02:13:29;;;;;;;8.65;6.05;;;;;;;14.94;92.11;100095.53;5107278;28;20023;-83
2023/07/05 02:15:54;;;;;;;9.18;6.68;;;;;;;14.92;92.44;100097.69;5072781;28;20479;-83
2023/07/05 02:18:20;;;;;;;9.65;6.22;;;;;;;14.89;92.72;100076.47;5098794;28;20080;-83
2023/07/05 02:20:45;;;;;;;7.95;5.82;;;;;;;14.98;92.82;100074.19;5099971;28;20103;-83
2023/07/05 02:23:11;;;;;;;7.35;5.30;;;;;;;15.09;92.80;100080.59;5109204;28;20044;-85
2023/07/05 02:25:36;;;;;;;6.28;4.82;;;;;;;15.23;92.11;100081.91;5107744;28;20031;-84
2023/07/05 02:28:06;;;;;;;7.32;5.30;;;;;;;15.26;92.46;100064.34;5099782;28;20588;-84
2023/07/05 02:30:35;;;;;;;6.57;5.25;;;;;;;15.30;92.09;100077.16;5106320;28;20027;-82
2023/07/05 02:33:00;;;;;;;6.97;5.00;;;;;;;15.29;92.33;100070.09;5108644;28;20035;-83
2023/07/05 02:35:25;;;;;;;7.10;5.15;;;;;;;15.31;92.39;100067.94;5099942;28;20023;-82
2023/07/05 02:37:51;;;;;;;6.20;4.47;;;;;;;15.39;92.13;100072.13;5107790;28;20031;-84
2023/07/05 02:40:16;;;;;;;4.72;4.20;;;;;;;15.42;92.02;100068.09;5108532;28;20431;-83
2023/07/05 02:42:41;;;;;;;5.45;4.53;;;;;;;15.49;92.26;100048.94;5085758;28;20032;-83
2023/07/05 02:45:07;;;;;;;5.05;4.43;;;;;;;15.58;91.61;100064.53;5098048;28;20026;-82
2023/07/05 02:47:33;;;;;;;5.45;4.40;;;;;;;15.64;91.43;100057.28;5107317;28;20024;-82
2023/07/05 02:49:58;;;;;;;6.85;4.43;;;;;;;15.68;91.34;100054.91;5110402;28;20019;-82
2023/07/05 02:52:23;;;;;;;4.78;3.67;;;;;;;15.83;89.97;100056.97;5103038;28;20037;-82
2023/07/05 02:54:49;;;;;;;4.88;3.67;;;;;;;15.87;89.96;100044.59;5110124;28;20114;-82
2023/07/05 02:57:14;;;;;;;4.63;3.45;;;;;;;15.94;89.03;100057.97;5109391;28;20030;-82
2023/07/05 02:59:40;;;;;;;8.35;3.67;;;;;;;15.96;88.95;100072.09;5109027;28;20555;-82
2023/07/05 03:02:05;;;;;;;4.47;3.22;;;;;;;15.99;88.10;100050.69;5110287;28;20092;-83
2023/07/05 03:04:30;;;;;;;2.92;2.63;;;;;;;16.03;87.31;100067.31;5102440;28;20471;-82
2023/07/05 03:06:56;;;;;;;3.88;2.90;;;;;;;16.06;86.95;100074.97;5109471;28;20020;-82
2023/07/05 03:09:21;;;;;;;3.47;2.80;;;;;;;16.06;86.65;100077.69;5108203;28;20024;-82
2023/07/05 03:11:47;;;;;;;3.35;2.90;;;;;;;16.03;86.66;100067.31;5108185;28;20059;-81
2023/07/05 03:14:12;;;;;;;3.53;2.20;;;;;;;16.03;85.53;100078.19;5108386;28;20023;-81
2023/07/05 03:16:38;;;;;;;2.17;1.98;;;;;;;15.94;85.57;100076.97;5109557;28;20410;-82
2023/07/05 03:19:03;;;;;;;2.53;2.10;;;;;;;15.92;85.06;100082.66;5109561;28;20067;-82
2023/07/05 03:21:30;;;;;;;3.55;2.25;;;;;;;15.86;84.81;100081.78;5111120;28;20027;-85
2023/07/05 03:23:55;;;;;;;3.17;2.00;;;;;;;15.86;84.06;100092.63;5111407;28;20020;-81
2023/07/05 03:26:20;;;;;;;2.10;1.90;;;;;;;15.77;83.62;100105.78;5110295;28;20027;-81
2023/07/05 03:28:46;;;;;;;2.53;1.90;;;;;;;15.74;81.47;100111.69;5091841;28;20027;-81
2023/07/05 03:31:13;;;;;;;2.80;2.10;;;;;;;15.66;81.40;100122.16;5110539;28;20039;-81
2023/07/05 03:33:39;;;;;;;2.78;2.17;;;;;;;15.61;81.11;100123.72;5109065;28;20110;-82
2023/07/05 03:36:06;;;;;;;3.17;2.03;;;;;;;15.60;80.11;100130.22;5109989;28;20114;-81
2023/07/05 03:38:32;;;;;;;2.00;1.80;;;;;;;15.43;78.74;100119.41;5084080;28;20052;-81
2023/07/05 03:41:05;;;;;;;2.45;1.95;;;;;;;15.31;77.81;100126.78;5109713;28;20139;-81
2023/07/05 03:43:32;;;;;;;2.75;1.67;;;;;;;15.24;76.20;100132.38;5101385;28;20955;-81
2023/07/05 03:46:00;;;;;;;2.45;1.98;;;;;;;15.08;75.06;100155.69;5109531;28;20039;-81
2023/07/05 03:48:26;;;;;;;2.47;2.05;;;;;;;14.92;74.22;100173.56;5101918;28;20018;-83
2023/07/05 03:50:55;;;;;;;4.97;2.40;;;;;;;14.83;74.54;100169.56;5110047;28;20126;-81
2023/07/05 03:53:21;;;;;;;4.07;1.90;;;;;;;14.67;76.09;100177.38;5103408;28;20028;-81
2023/07/05 03:55:46;;;;;;;2.65;2.13;;;;;;;14.68;75.45;100179.06;5109759;28;20372;-83
2023/07/05 03:58:11;;;;;;;2.10;1.90;;;;;;;14.61;75.54;100183.78;5105875;28;20031;-82
2023/07/05 04:00:37;;;;;;;3.00;2.20;;;;;;;14.43;76.73;100189.38;5104633;28;20031;-81
2023/07/05 04:03:02;;;;;;;2.60;1.98;;;;;;;14.32;76.28;100186.44;5102348;28;20058;-81
2023/07/05 04:05:28;;;;;;;3.58;2.38;;;;;;;14.28;74.79;100201.53;5098806;28;20445;-81
2023/07/05 04:07:53;;;;;;;3.72;2.10;;;;;;;14.14;75.30;100178.44;5107888;28;20024;-81
2023/07/05 04:10:18;;;;;;;2.10;1.90;;;;;;;14.05;73.97;100192.34;5107531;28;20073;-81
2023/07/05 04:12:44;;;;;;;3.03;2.13;;;;;;;13.78;74.83;100202.81;5104050;28;20032;-81
2023/07/05 04:15:10;;;;;;;3.63;2.20;;;;;;;13.84;74.72;100206.47;5115612;28;20035;-81
2023/07/05 04:17:35;;;;;;;3.75;2.22;;;;;;;13.72;74.99;100210.00;5110280;28;20053;-82
2023/07/05 04:20:02;;;;;;;4.18;2.40;;;;;;;13.67;75.30;100222.59;5104498;28;20732;-81
2023/07/05 04:22:30;;;;;;;3.00;2.10;;;;;;;13.61;75.62;100218.91;5100217;28;20022;-82
2023/07/05 04:24:55;;;;;;;5.07;2.58;;;;;;;13.56;75.65;100221.50;5105151;28;20059;-81
2023/07/05 04:27:21;;;;;;;4.13;2.40;;;;;;;13.53;76.07;100222.78;5102219;28;20092;-82
2023/07/05 04:29:47;;;;;;;3.50;2.33;;;;;;;13.61;75.54;100217.03;5100352;28;20024;-82
2023/07/05 04:32:12;;;;;;;5.18;2.75;;;;;;;13.59;75.38;100237.28;5101446;28;20028;-81
2023/07/05 04:34:40;;;;;;;6.82;2.50;;;;;;;13.57;76.24;100229.38;5108706;28;20036;-81
2023/07/05 04:37:08;;;;;;;5.00;2.50;;;;;;;13.52;75.96;100220.31;5107922;28;20036;-84
2023/07/05 04:39:33;;;;;;;3.53;2.58;;;;;;;13.49;75.35;100210.78;5108647;28;20057;-81
2023/07/05 04:41:59;;;;;;;4.38;2.63;;;;;;;13.52;75.28;100204.91;5099620;28;20019;-81
2023/07/05 04:44:24;;;;;;;7.03;2.97;;;;;;;13.51;74.48;100195.13;5108250;28;20039;-81
2023/07/05 04:46:49;;;;;;;3.75;2.65;;;;;;;13.60;73.78;100204.56;5109540;28;20024;-83
2023/07/05 04:49:15;;;;;;;3.63;2.70;;;;;;;13.67;74.30;100206.34;5107615;28;20084;-83
2023/07/05 04:51:40;;;;;;;4.22;2.85;;;;;;;13.90;73.83;100200.94;5099937;28;20135;-82
2023/07/05 04:54:06;;;;;;;6.07;2.97;;;;;;;14.21;72.04;100200.81;5101594;28;20476;-82
2023/07/05 04:56:31;;;;;;;5.25;2.80;;;;;;;14.28;71.52;100206.94;5105652;28;20020;-82
2023/07/05 04:58:56;;;;;;;3.17;2.83;;;;;;;14.13;71.85;100203.88;5100386;28;20035;-80
2023/07/05 05:01:22;;;;;;;5.38;3.22;;;;;;;14.12;72.79;100197.66;5097033;28;20466;-82
2023/07/05 05:03:47;;;;;;;4.03;3.08;;;;;;;14.17;72.10;100189.66;5104397;28;20039;-82
2023/07/05 05:06:18;;;;;;;4.95;2.90;;;;;;;15.00;69.52;100200.25;5105523;28;20071;-83
2023/07/05 05:08:44;;;;;;;6.78;2.70;;;;;;;15.33;67.89;100211.41;5101625;28;20031;-83
2023/07/05 05:11:09;;;;;;;4.05;3.47;;;;;;;15.70;66.74;100202.81;5099716;28;20035;-83
2023/07/05 05:13:35;;;;;;;3.15;2.85;;;;;;;16.09;65.66;100196.63;5107340;28;20034;-83
2023/07/05 05:16:00;;;;;;;5.63;3.20;;;;;;;15.88;65.77;100217.22;5109052;28;20089;-83
2023/07/05 05:18:27;;;;;;;3.88;2.92;;;;;;;15.99;65.22;100201.91;5102821;28;20040;-83
2023/07/05 05:20:53;;;;;;;4.88;2.85;;;;;;;16.01;65.00;100197.88;5106781;28;20027;-84
2023/07/05 05:23:18;;;;;;;4.18;3.00;;;;;;;16.50;64.44;100201.78;5100532;28;20073;-83
2023/07/05 05:25:45;;;;;;;4.45;2.80;;;;;;;17.25;61.05;100206.72;5106013;28;20489;-83
2023/07/05 05:28:11;;;;;;;4.30;2.75;;;;;;;17.38;60.86;100192.69;5105377;28;20066;-83
2023/07/05 05:30:36;;;;;;;7.53;3.00;;;;;;;17.40;60.17;100192.41;5106920;28;20482;-83
2023/07/05 05:33:08;;;;;;;5.20;3.20;;;;;;;17.34;60.58;100194.28;5107306;28;20024;-84
2023/07/05 05:35:34;;;;;;;6.93;3.10;;;;;;;17.96;58.53;100186.56;5109733;28;20015;-84
2023/07/05 05:38:03;;;;;;;4.97;2.75;;;;;;;18.09;58.13;100179.84;5113709;28;20479;-84
2023/07/05 05:40:28;;;;;;;3.55;2.80;;;;;;;17.71;59.02;100174.44;5121586;28;20122;-77
2023/07/05 05:42:54;;;;;;;3.20;2.72;;;;;;;17.93;58.12;100180.81;5113163;28;20479;-78
2023/07/05 05:45:19;;;;;;;7.13;3.10;;;;;;;18.14;57.69;100165.47;5100729;28;20085;-78
2023/07/05 05:47:47;;;;;;;5.78;2.70;;;;;;;18.35;55.90;100174.53;5105028;28;20027;-78
2023/07/05 05:50:12;;;;;;;4.25;3.00;;;;;;;18.13;57.42;100180.16;5106826;28;20118;-78
2023/07/05 05:52:37;;;;;;;4.07;2.92;;;;;;;17.91;56.99;100178.38;5104922;28;20024;-77
2023/07/05 05:55:03;;;;;;;4.07;2.97;;;;;;;18.15;56.27;100172.56;5095835;28;20036;-77
2023/07/05 05:57:29;;;;;;;3.97;3.05;;;;;;;17.22;58.73;100177.31;5107265;28;20081;-78
2023/07/05 05:59:54;;;;;;;8.48;3.45;;;;;;;16.27;61.99;100178.38;5108321;28;20547;-77
2023/07/05 06:02:19;;;;;;;7.88;3.20;;;;;;;16.03;62.88;100186.78;5106653;28;20027;-78
2023/07/05 06:04:45;;;;;;;3.95;3.00;;;;;;;15.67;63.94;100188.94;5108133;28;20454;-77
2023/07/05 06:07:10;;;;;;;5.43;3.15;;;;;;;15.39;65.70;100182.50;5105471;28;20747;-80
2023/07/05 06:09:39;;;;;;;7.72;3.15;;;;;;;15.03;65.93;100196.25;5102043;28;20050;-82
2023/07/05 06:12:05;;;;;;;6.15;2.83;;;;;;;14.79;65.91;100182.00;5103827;28;20038;-81
2023/07/05 06:14:30;;;;;;;5.80;2.97;;;;;;;14.64;65.99;100175.19;5103451;28;20062;-83
2023/07/05 06:16:56;;;;;;;6.45;2.75;;;;;;;14.59;66.81;100180.50;5105486;28;20035;-81
2023/07/05 06:19:22;;;;;;;6.10;3.08;;;;;;;14.53;66.01;100165.19;5101719;28;20424;-81
2023/07/05 06:21:48;;;;;;;4.28;2.80;;;;;;;14.68;65.87;100173.63;5105621;28;20015;-79
2023/07/05 06:24:14;;;;;;;7.38;3.10;;;;;;;15.85;62.59;100185.97;5111156;28;20062;-81
2023/07/05 06:26:39;;;;;;;4.13;2.60;;;;;;;17.05;58.90;100186.41;5103627;28;20069;-82
2023/07/05 06:29:04;;;;;;;6.20;2.75;;;;;;;17.23;57.18;100190.63;5109811;28;20379;-81
2023/07/05 06:31:33;;;;;;;5.10;2.88;;;;;;;16.75;58.36;100198.56;5110868;28;20043;-79
2023/07/05 06:34:01;;;;;;;5.22;3.10;;;;;;;16.10;60.37;100197.47;5104865;28;20035;-81
2023/07/05 06:36:26;;;;;;;4.32;2.60;;;;;;;15.75;61.64;100164.06;5089870;28;20016;-81
2023/07/05 06:38:52;;;;;;;5.93;2.97;;;;;;;15.26;62.73;100184.47;5112800;28;20015;-84
2023/07/05 06:41:18;;;;;;;12.10;3.10;;;;;;;15.00;64.25;100192.13;5116213;28;20027;-83
2023/07/05 06:43:43;;;;;;;4.50;2.78;;;;;;;14.84;65.00;100182.06;5111250;28;20023;-84
2023/07/05 06:46:09;;;;;;;4.50;2.80;;;;;;;14.71;65.70;100199.44;5108936;28;20035;-83
2023/07/05 06:48:34;;;;;;;5.00;3.03;;;;;;;14.57;65.86;100190.72;5038044;22;20481;-81
2023/07/05 06:51:00;;;;;;;4.18;2.42;;;;;;;14.60;65.86;100184.84;5007785;28;20049;-77
2023/07/05 06:53:25;;;;;;;4.90;2.95;;;;;;;14.51;66.08;100186.28;5004856;28;20041;-78
2023/07/05 06:55:51;;;;;;;6.68;3.05;;;;;;;14.45;66.90;100195.38;5004146;28;20041;-79
2023/07/05 06:58:21;;;;;;;4.72;3.20;;;;;;;14.40;66.77;100187.94;5005663;28;20058;-80
2023/07/05 07:00:47;;;;;;;5.07;2.60;;;;;;;14.46;66.60;100189.69;5004540;28;20022;-80
2023/07/05 07:03:13;;;;;;;5.32;2.60;;;;;;;14.38;67.43;100204.44;5006563;28;20388;-79
2023/07/05 07:05:38;;;;;;;5.18;2.55;;;;;;;14.32;66.84;100194.53;5038537;28;20030;-79
2023/07/05 07:08:04;;;;;;;6.70;2.88;;;;;;;14.28;67.27;100198.81;5018160;28;20022;-79
2023/07/05 07:10:29;;;;;;;3.67;2.38;;;;;;;14.09;67.89;100200.81;5012516;28;20037;-79
2023/07/05 07:12:57;;;;;;;8.02;2.90;;;;;;;14.12;67.45;100207.66;5007813;28;20037;-79
2023/07/05 07:15:23;;;;;;;3.42;2.58;;;;;;;14.13;67.43;100203.88;5006452;28;20116;-79
2023/07/05 07:17:48;;;;;;;4.53;2.70;;;;;;;14.25;67.80;100223.66;5004903;28;20033;-79
2023/07/05 07:20:14;;;;;;;5.40;2.63;;;;;;;14.39;67.27;100214.22;5006051;28;20022;-79
2023/07/05 07:22:40;;;;;;;4.22;2.60;;;;;;;14.36;67.13;100211.97;5008680;28;20057;-79
2023/07/05 07:25:06;;;;;;;3.63;2.47;;;;;;;14.23;66.64;100232.00;5006687;28;20066;-79
2023/07/05 07:27:31;;;;;;;5.28;2.50;;;;;;;14.22;66.84;100213.28;5006146;28;20030;-79
2023/07/05 07:29:56;;;;;;;5.35;2.85;;;;;;;14.31;66.38;100217.28;5006271;28;20099;-78
2023/07/05 07:32:22;;;;;;;4.93;2.08;;;;;;;14.12;65.27;100164.34;5006921;28;20041;-78
2023/07/05 07:34:51;;;;;;;3.25;2.40;;;;;;;14.13;64.98;100218.25;5006006;28;20052;-79
2023/07/05 07:37:16;;;;;;;4.20;2.00;;;;;;;14.00;65.71;100230.13;5006056;28;20087;-78
2023/07/05 07:39:41;;;;;;;3.25;2.22;;;;;;;13.99;65.83;100231.19;5006265;28;20034;-78
2023/07/05 07:42:07;;;;;;;4.60;2.00;;;;;;;14.05;65.71;100234.81;5003127;28;20433;-79
2023/07/05 07:44:32;;;;;;;2.55;1.92;;;;;;;14.08;65.85;100231.66;5025353;28;20492;-78
2023/07/05 07:46:58;;;;;;;4.10;2.10;;;;;;;13.99;66.35;100219.53;5025560;28;20075;-78
2023/07/05 07:49:24;;;;;;;3.00;2.05;;;;;;;14.04;64.87;100244.84;5005661;28;20026;-77
2023/07/05 07:51:49;;;;;;;3.28;2.30;;;;;;;14.10;65.69;100238.50;5004248;28;20028;-78
2023/07/05 07:54:17;;;;;;;2.58;2.20;;;;;;;13.99;65.52;100243.91;5020948;28;20030;-78
2023/07/05 07:56:43;;;;;;;3.63;2.17;;;;;;;13.92;65.50;100257.53;5006912;28;20564;-77
2023/07/05 07:59:08;;;;;;;4.80;2.20;;;;;;;14.00;65.56;100249.06;5008561;28;20132;-78
2023/07/05 08:01:34;;;;;;;5.50;2.53;;;;;;;14.09;64.38;100260.38;5028355;28;20038;-77
2023/07/05 08:04:01;;;;;;;5.43;2.25;;;;;;;14.02;64.21;100246.94;5020590;28;20034;-78
2023/07/05 08:06:30;;;;;;;5.28;2.17;;;;;;;14.04;64.56;100236.72;5006001;28;20062;-75
2023/07/05 08:08:56;;;;;;;4.35;1.95;;;;;;;13.95;64.84;100257.91;5006754;28;20038;-76
2023/07/05 08:11:22;;;;;;;5.03;2.30;;;;;;;13.88;65.73;100286.13;5047961;28;20343;-77
2023/07/05 08:13:48;;;;;;;3.05;2.30;;;;;;;13.89;66.24;100293.19;5012495;28;20060;-77
2023/07/05 08:16:14;;;;;;;4.43;2.33;;;;;;;13.99;66.01;100290.72;5030466;28;20137;-77
2023/07/05 08:18:40;;;;;;;3.50;2.00;;;;;;;14.16;64.40;100290.84;5004121;28;20470;-77
2023/07/05 08:21:05;;;;;;;3.67;2.20;;;;;;;14.23;62.99;100269.88;4999919;28;20038;-75
2023/07/05 08:23:30;;;;;;;3.65;1.92;;;;;;;14.36;62.88;100285.09;5020243;28;20038;-76
2023/07/05 08:25:56;;;;;;;4.93;1.75;;;;;;;14.50;62.69;100291.09;5004487;28;20079;-76
2023/07/05 08:28:22;;;;;;;3.20;2.00;;;;;;;14.55;62.81;100285.78;5004020;28;20083;-76
2023/07/05 08:31:01;;;;;;;5.47;2.10;;;;;;;14.69;62.32;100280.13;5004186;28;20062;-76
2023/07/05 08:33:28;;;;;;;2.45;1.80;;;;;;;14.79;62.21;100293.88;5005198;28;20048;-76
2023/07/05 08:36:33;;;;;;;2.78;1.98;;;;;;;14.65;62.39;100304.13;5024872;23;20149;-76
2023/07/05 08:38:59;;;;;;;2.95;2.20;;;;;;;14.54;62.84;100310.38;5013598;28;20054;-77
2023/07/05 08:41:31;;;;;;;4.38;2.30;;;;;;;14.73;61.86;100277.75;5040756;27;20029;-76
2023/07/05 08:44:18;;;;;;;3.85;2.25;;;;;;;14.44;62.71;100297.44;5038014;28;20157;-82
2023/07/05 08:46:45;;;;;;;5.40;2.00;;;;;;;14.48;63.69;100325.69;5017698;28;20026;-78
2023/07/05 08:49:13;;;;;;;4.55;2.17;;;;;;;14.13;65.46;100325.66;5006166;28;20103;-78
2023/07/05 08:51:41;;;;;;;5.70;2.30;;;;;;;14.20;65.76;100329.09;5023302;28;20033;-78
2023/07/05 08:54:10;;;;;;;5.00;2.40;;;;;;;14.01;66.05;100348.13;5008435;28;20029;-77
2023/07/05 08:56:38;;;;;;;4.30;2.45;;;;;;;14.09;66.03;100337.00;4992059;28;20057;-78
2023/07/05 08:59:11;;;;;;;5.60;2.40;;;;;;;14.17;66.41;100351.22;4990091;28;20112;-76
2023/07/05 09:01:39;;;;;;;4.05;2.72;;;;;;;14.23;65.96;100353.00;5002639;28;20041;-77
2023/07/05 09:04:12;;;;;;;3.63;2.33;;;;;;;14.19;65.97;100339.13;5006929;28;20033;-77
2023/07/05 09:06:58;;;;;;;4.07;2.47;;;;;;;14.61;65.31;100340.91;5011099;28;20330;-77
2023/07/05 09:09:36;;;;;;;7.10;2.75;;;;;;;14.56;65.02;100338.06;5009070;28;20052;-77
2023/07/05 09:12:25;;;;;;;3.25;2.50;;;;;;;14.42;66.21;100358.31;5007563;28;20067;-76
2023/07/05 09:15:29;;;;;;;4.13;2.63;;;;;;;14.48;66.24;100346.53;5011205;28;20170;-76
2023/07/05 09:18:33;;;;;;;9.63;2.97;;;;;;;15.10;64.03;100354.16;5002368;28;20590;-77
2023/07/05 09:21:40;;;;;;;7.15;2.88;;;;;;;15.65;61.50;100356.56;5057130;28;20040;-76
2023/07/05 09:24:19;;;;;;;;;;;;;;;16.14;60.32;100362.34;4932184;28;20125;-76
2023/07/05 09:26:49;;;;;;;4.03;2.70;;;;;;;16.11;59.55;100348.44;4934163;28;19934;-76
2023/07/05 09:29:50;;;;;;;5.72;3.08;;;;;;;15.85;60.93;100348.84;4974657;28;20132;-76
2023/07/05 09:32:21;;;;;;;7.53;3.53;;;;;;;16.02;61.36;100375.19;5062047;28;20049;-76
2023/07/05 09:34:55;;;;;;;4.72;2.75;;;;;;;16.56;60.61;100352.13;5006749;28;20069;-76
2023/07/05 09:37:22;;;;;;;4.85;2.80;;;;;;;17.02;59.83;100363.66;5009974;28;20097;-76
2023/07/05 09:40:16;;;;;;;4.97;2.90;;;;;;;17.82;57.49;100367.81;5023909;28;20078;-76
2023/07/05 09:43:06;;;;;;;4.88;3.05;;;;;;;18.27;56.22;100379.38;5035629;28;20044;-77
2023/07/05 09:45:32;;;;;;;6.60;3.10;;;;;;;18.40;55.22;100375.41;4992523;28;20032;-77
2023/07/05 09:48:02;;;;;;;6.18;2.95;;;;;;;18.70;54.37;100374.00;5005128;28;20384;-76
2023/07/05 09:50:27;;;;;;;6.13;3.15;;;;;;;19.54;52.68;100368.63;5008593;28;20113;-77
2023/07/05 09:52:58;;;;;;;6.65;2.65;;;;;;;19.14;51.76;100368.22;5026014;28;20472;-77
2023/07/05 09:55:27;;;;;;;4.85;2.72;;;;;;;19.11;53.15;100376.94;5009200;28;20033;-77
2023/07/05 09:57:53;;;;;;;6.50;2.90;;;;;;;18.51;54.58;100379.03;5023338;28;20022;-76
2023/07/05 10:00:26;;;;;;;5.32;2.80;;;;;;;18.70;53.74;100371.25;5026268;28;20102;-77
2023/07/05 10:02:53;;;;;;;6.30;2.80;;;;;;;18.18;54.38;100382.59;5010985;28;20067;-77
2023/07/05 10:05:27;;;;;;;3.75;2.60;;;;;;;18.35;53.43;100369.94;5011059;28;20561;-77
2023/07/05 10:07:57;;;;;;;8.27;2.33;;;;;;;18.68;52.97;100373.44;5032830;28;20048;-77
2023/07/05 10:10:26;;;;;;;5.57;2.78;;;;;;;18.99;53.09;100406.34;5028717;28;20026;-77
2023/07/05 10:12:57;;;;;;;22.13;3.00;;;;;;;19.39;51.68;100410.38;5028215;28;20029;-78
2023/07/05 10:15:23;;;;;;;6.82;2.60;;;;;;;18.14;53.59;100418.81;5011178;28;20572;-77
2023/07/05 10:17:51;;;;;;;8.75;2.50;;;;;;;17.23;55.59;100438.16;5028552;28;20025;-77
2023/07/05 10:20:18;;;;;;;7.35;2.55;;;;;;;17.09;57.15;100454.03;5011233;28;20483;-77
2023/07/05 10:22:43;;;;;;;4.18;2.83;;;;;;;16.87;57.49;100455.84;5063477;28;20054;-77
2023/07/05 10:25:17;;;;;;;12.02;3.20;;;;;;;16.66;57.87;100441.94;5028911;28;20033;-77
2023/07/05 10:27:43;;;;;;;7.25;2.78;;;;;;;16.20;58.99;100463.72;5011049;28;20031;-77
2023/07/05 10:30:15;;;;;;;5.90;2.55;;;;;;;16.06;59.30;100458.59;4993783;28;20057;-77
2023/07/05 10:32:41;;;;;;;7.65;3.35;;;;;;;15.77;60.74;100474.03;5028933;28;20017;-78
2023/07/05 10:35:28;;;;;;;8.35;3.10;;;;;;;15.91;61.06;100499.03;5035825;28;20163;-77
2023/07/05 10:37:53;;;;;;;5.75;2.60;;;;;;;16.02;61.24;100500.06;5044178;28;20068;-77
2023/07/05 10:40:19;;;;;;;4.18;2.70;;;;;;;16.13;60.55;100501.91;5028326;28;20044;-77
2023/07/05 10:42:55;;;;;;;7.45;2.30;;;;;;;15.95;60.24;100516.50;4992198;28;20034;-77
2023/07/05 10:45:21;;;;;;;6.72;2.42;;;;;;;15.90;61.49;100525.34;4993110;28;20489;-77
2023/07/05 10:47:52;;;;;;;4.28;2.10;;;;;;;15.92;61.82;100516.97;5007816;28;20030;-77
2023/07/05 10:50:27;;;;;;;4.30;2.50;;;;;;;16.02;62.28;100508.22;5014647;28;20026;-77
2023/07/05 10:53:15;;;;;;;6.03;2.65;;;;;;;15.98;60.74;100564.06;5017107;28;20060;-77
2023/07/05 10:56:03;;;;;;;3.83;2.15;;;;;;;15.29;67.95;100558.22;5028535;28;20059;-77
2023/07/05 10:58:35;;;;;;;5.15;2.53;;;;;;;14.91;70.37;100558.66;5010367;28;20022;-77
2023/07/05 11:01:13;;;;;;;5.93;2.47;;;;;;;14.83;70.63;100570.63;5014923;28;20420;-77
2023/07/05 11:03:40;;;;;;;4.18;2.33;;;;;;;14.67;71.85;100583.75;4996770;28;20094;-77
2023/07/05 11:06:05;;;;;;;8.43;2.67;;;;;;;14.64;72.29;100553.59;5012895;28;20074;-77
2023/07/05 11:08:37;;;;;;;2.85;2.60;;;;;;;14.58;72.04;100559.94;5032257;28;20030;-77
2023/07/05 11:11:15;;;;;;;4.22;2.40;;;;;;;14.69;72.76;100578.97;5023284;28;20032;-77
2023/07/05 11:13:42;;;;;;;7.97;2.70;;;;;;;14.56;73.09;100584.56;5004229;28;20112;-77
2023/07/05 11:16:21;;;;;;;5.75;2.58;;;;;;;14.47;73.35;100569.69;5040087;28;20027;-77
2023/07/05 11:18:46;;;;;;;8.18;2.75;;;;;;;15.04;70.53;100598.25;4996181;28;20049;-77
2023/07/05 11:21:37;;;;;;;5.45;2.30;;;;;;;16.05;67.86;100592.72;5013493;28;20071;-78
2023/07/05 11:24:05;;;;;;;9.13;2.28;;;;;;;17.61;64.48;100593.53;5028926;28;20451;-77
2023/07/05 11:26:44;;;;;;;5.05;2.35;;;;;;;18.39;61.31;100584.44;5029702;28;20055;-77
2023/07/05 11:29:27;;;;;;;5.00;2.50;;;;;;;18.00;61.04;100579.88;5022912;28;20022;-77
2023/07/05 11:31:53;;;;;;;6.07;2.58;;;;;;;17.63;60.94;100585.94;5028959;28;20038;-77